Time;durP1;ratioP1;P1;durP2;ratioP2;P2;SDS_P1;SDS_P2;PMS_P1;PMS_P2;Temp;Humidity;BMP_temperature;BMP_pressure;BME280_temperature;BME280_humidity;BME280_pressure;Samples;Min_cycle;Max_cycle;Signal;HPM_P1;HPM_P2
2023/08/08 00:02:10;;;;;;;2.22;1.65;;;;;;;;;;5061903;28;20401;-63
2023/08/08 00:04:36;;;;;;;1.63;1.60;;;;;;;;;;5061565;28;20201;-63
2023/08/08 00:07:03;;;;;;;3.40;1.35;;;;;;;;;;5061666;28;20197;-63
2023/08/08 00:09:29;;;;;;;2.92;1.70;;;;;;;;;;5061480;28;20235;-63
2023/08/08 00:11:56;;;;;;;1.58;1.48;;;;;;;;;;5061907;28;20500;-63
2023/08/08 00:14:24;;;;;;;1.58;1.40;;;;;;;;;;5061598;28;20209;-63
2023/08/08 00:16:50;;;;;;;1.50;1.40;;;;;;;;;;5061642;28;20205;-63
2023/08/08 00:19:17;;;;;;;1.40;1.30;;;;;;;;;;5061549;28;20206;-63
2023/08/08 00:21:43;;;;;;;2.08;1.50;;;;;;;;;;5061370;28;20207;-63
2023/08/08 00:24:09;;;;;;;1.40;1.40;;;;;;;;;;5061655;28;20497;-63
2023/08/08 00:26:36;;;;;;;1.10;1.10;;;;;;;;;;5065233;28;20197;-63
2023/08/08 00:29:02;;;;;;;1.65;1.58;;;;;;;;;;5065483;28;20221;-63
2023/08/08 00:31:29;;;;;;;2.60;1.33;;;;;;;;;;5065493;28;20280;-63
2023/08/08 00:33:56;;;;;;;1.20;1.20;;;;;;;;;;5057117;28;20205;-63
2023/08/08 00:36:22;;;;;;;1.50;1.40;;;;;;;;;;5065190;28;20204;-63
2023/08/08 00:38:49;;;;;;;1.20;1.17;;;;;;;;;;5065143;28;20208;-63
2023/08/08 00:41:15;;;;;;;1.52;1.40;;;;;;;;;;5065374;28;20432;-63
2023/08/08 00:43:43;;;;;;;1.40;1.30;;;;;;;;;;5065190;28;20204;-63
2023/08/08 00:46:09;;;;;;;1.33;1.33;;;;;;;;;;5064899;28;20620;-63
2023/08/08 00:48:37;;;;;;;1.40;1.30;;;;;;;;;;5064781;28;20207;-63
2023/08/08 00:51:03;;;;;;;1.50;1.40;;;;;;;;;;5064752;28;20402;-63
2023/08/08 00:53:31;;;;;;;1.55;1.45;;;;;;;;;;5065105;28;20500;-63
2023/08/08 00:55:59;;;;;;;1.52;1.40;;;;;;;;;;5064898;28;20228;-63
2023/08/08 00:58:25;;;;;;;1.42;1.33;;;;;;;;;;5064992;28;20208;-63
2023/08/08 01:00:52;;;;;;;1.65;1.23;;;;;;;;;;5064758;28;20208;-63
2023/08/08 01:03:18;;;;;;;2.20;1.17;;;;;;;;;;5064848;28;20236;-63
2023/08/08 01:05:48;;;;;;;1.23;1.23;;;;;;;;;;5064341;28;20205;-63
2023/08/08 01:08:17;;;;;;;2.65;1.38;;;;;;;;;;5065137;28;20197;-63
2023/08/08 01:10:43;;;;;;;2.95;1.00;;;;;;;;;;5064586;28;20225;-63
2023/08/08 01:13:11;;;;;;;1.63;1.00;;;;;;;;;;5064711;28;20212;-63
2023/08/08 01:15:38;;;;;;;2.63;1.40;;;;;;;;;;5064261;28;20402;-63
2023/08/08 01:18:05;;;;;;;1.23;1.23;;;;;;;;;;5064448;28;20425;-63
2023/08/08 01:20:33;;;;;;;1.23;1.23;;;;;;;;;;5064608;28;20247;-63
2023/08/08 01:23:09;;;;;;;1.48;1.38;;;;;;;;;;5056516;28;20197;-63
2023/08/08 01:25:36;;;;;;;1.20;1.17;;;;;;;;;;5064126;28;20197;-63
2023/08/08 01:28:05;;;;;;;1.25;1.25;;;;;;;;;;5064248;28;20224;-63
2023/08/08 01:30:31;;;;;;;1.17;1.17;;;;;;;;;;5063935;28;20280;-63
2023/08/08 01:32:57;;;;;;;1.77;1.27;;;;;;;;;;5064238;28;20197;-63
2023/08/08 01:35:26;;;;;;;1.80;1.10;;;;;;;;;;5063953;28;20501;-63
2023/08/08 01:37:55;;;;;;;1.00;1.00;;;;;;;;;;5064108;28;20408;-63
2023/08/08 01:40:21;;;;;;;1.33;1.23;;;;;;;;;;5063908;28;20200;-63
2023/08/08 01:42:49;;;;;;;1.23;1.23;;;;;;;;;;5064107;28;20208;-63
2023/08/08 01:45:16;;;;;;;0.80;0.80;;;;;;;;;;5064044;28;20394;-63
2023/08/08 01:47:42;;;;;;;1.10;1.10;;;;;;;;;;5063719;28;20212;-63
2023/08/08 01:50:09;;;;;;;1.23;1.13;;;;;;;;;;5063916;28;20251;-63
2023/08/08 01:52:35;;;;;;;1.00;1.00;;;;;;;;;;5063807;28;20197;-63
2023/08/08 01:55:02;;;;;;;1.60;1.23;;;;;;;;;;5063588;28;20378;-63
2023/08/08 01:57:28;;;;;;;3.03;1.15;;;;;;;;;;5064108;28;20425;-63
2023/08/08 01:59:56;;;;;;;2.28;1.00;;;;;;;;;;5064022;28;20215;-63
2023/08/08 02:02:22;;;;;;;1.10;1.10;;;;;;;;;;5063723;28;20224;-63
2023/08/08 02:04:48;;;;;;;1.10;1.10;;;;;;;;;;5063299;28;20201;-63
2023/08/08 02:07:15;;;;;;;1.10;1.10;;;;;;;;;;5063531;28;20201;-63
2023/08/08 02:09:41;;;;;;;1.00;1.00;;;;;;;;;;5063263;28;20468;-63
2023/08/08 02:12:08;;;;;;;1.73;1.15;;;;;;;;;;5063638;28;20197;-63
2023/08/08 02:14:34;;;;;;;1.15;1.15;;;;;;;;;;5063255;28;20198;-63
2023/08/08 02:17:02;;;;;;;1.58;1.10;;;;;;;;;;5063391;28;20528;-63
2023/08/08 02:19:29;;;;;;;0.93;0.93;;;;;;;;;;5063340;28;20200;-63
2023/08/08 02:21:55;;;;;;;1.48;1.38;;;;;;;;;;5063125;28;20229;-63
2023/08/08 02:24:21;;;;;;;1.38;1.23;;;;;;;;;;5063579;28;20515;-63
2023/08/08 02:26:48;;;;;;;0.95;0.95;;;;;;;;;;5063246;28;20396;-63
2023/08/08 02:29:14;;;;;;;2.55;1.50;;;;;;;;;;5063460;28;20520;-63
2023/08/08 02:31:41;;;;;;;1.40;1.40;;;;;;;;;;5063089;28;20520;-63
2023/08/08 02:34:08;;;;;;;1.17;1.10;;;;;;;;;;5062912;28;20476;-63
2023/08/08 02:36:34;;;;;;;1.67;1.20;;;;;;;;;;5063481;28;20508;-63
2023/08/08 02:39:01;;;;;;;1.50;1.50;;;;;;;;;;5063207;28;20500;-63
2023/08/08 02:41:27;;;;;;;1.60;1.50;;;;;;;;;;5063153;28;20219;-63
2023/08/08 02:43:53;;;;;;;1.98;1.63;;;;;;;;;;5062678;28;20220;-63
2023/08/08 02:46:19;;;;;;;1.13;1.13;;;;;;;;;;5062836;28;20204;-63
2023/08/08 02:48:46;;;;;;;1.55;1.38;;;;;;;;;;5062014;28;20208;-63
2023/08/08 02:51:13;;;;;;;1.38;1.27;;;;;;;;;;5062553;28;20213;-63
2023/08/08 02:53:39;;;;;;;1.10;1.10;;;;;;;;;;5062757;28;20197;-63
2023/08/08 02:56:06;;;;;;;1.35;1.35;;;;;;;;;;5062773;28;20205;-63
2023/08/08 02:58:32;;;;;;;1.20;1.20;;;;;;;;;;5063004;28;20486;-63
2023/08/08 03:00:58;;;;;;;2.92;1.40;;;;;;;;;;5062441;28;20204;-63
2023/08/08 03:03:24;;;;;;;1.75;1.65;;;;;;;;;;5062334;28;20400;-63
2023/08/08 03:05:51;;;;;;;1.42;1.23;;;;;;;;;;5062662;28;20247;-63
2023/08/08 03:08:19;;;;;;;1.80;1.50;;;;;;;;;;5062551;28;20205;-63
2023/08/08 03:10:45;;;;;;;3.03;1.30;;;;;;;;;;5062453;28;20335;-63
2023/08/08 03:13:11;;;;;;;2.22;1.50;;;;;;;;;;5062497;28;20197;-63
2023/08/08 03:15:38;;;;;;;1.30;1.30;;;;;;;;;;5062281;28;20204;-63
2023/08/08 03:18:04;;;;;;;1.45;1.42;;;;;;;;;;5062362;28;20509;-63
2023/08/08 03:20:30;;;;;;;1.40;1.40;;;;;;;;;;5062525;28;20205;-63
2023/08/08 03:22:57;;;;;;;1.33;1.17;;;;;;;;;;5062521;28;20205;-63
2023/08/08 03:25:24;;;;;;;8.57;1.83;;;;;;;;;;5062119;28;20197;-63
2023/08/08 03:27:51;;;;;;;1.13;1.13;;;;;;;;;;5062158;28;20221;-63
2023/08/08 03:30:17;;;;;;;2.88;1.20;;;;;;;;;;5062365;28;20220;-63
2023/08/08 03:32:43;;;;;;;1.30;1.30;;;;;;;;;;5061849;28;20201;-63
2023/08/08 03:35:10;;;;;;;1.40;1.25;;;;;;;;;;5062069;28;20236;-63
2023/08/08 03:37:36;;;;;;;2.25;1.40;;;;;;;;;;5062279;28;20197;-63
2023/08/08 03:40:03;;;;;;;1.42;1.00;;;;;;;;;;5062411;28;20201;-63
2023/08/08 03:42:30;;;;;;;2.35;1.40;;;;;;;;;;5062210;28;20423;-63
2023/08/08 03:44:56;;;;;;;1.38;1.27;;;;;;;;;;5061854;28;20205;-63
2023/08/08 03:47:23;;;;;;;2.28;1.40;;;;;;;;;;5061820;28;20203;-63
2023/08/08 03:49:49;;;;;;;1.45;1.40;;;;;;;;;;5062121;28;20205;-63
2023/08/08 03:52:15;;;;;;;2.53;1.48;;;;;;;;;;5062024;28;20197;-63
2023/08/08 03:54:41;;;;;;;2.33;1.30;;;;;;;;;;5061735;28;20204;-63
2023/08/08 03:57:08;;;;;;;2.83;1.48;;;;;;;;;;5062170;28;20201;-63
2023/08/08 03:59:35;;;;;;;1.48;1.30;;;;;;;;;;5062664;28;20512;-63
2023/08/08 04:02:02;;;;;;;1.40;1.30;;;;;;;;;;5065885;28;20394;-63
2023/08/08 04:04:28;;;;;;;1.40;1.30;;;;;;;;;;5066169;28;20433;-63
2023/08/08 04:06:54;;;;;;;3.90;1.33;;;;;;;;;;5065953;28;20223;-63
2023/08/08 04:09:20;;;;;;;2.33;1.30;;;;;;;;;;5065982;28;20201;-63
2023/08/08 04:11:47;;;;;;;1.42;1.42;;;;;;;;;;5065623;28;20227;-63
2023/08/08 04:14:13;;;;;;;1.73;1.58;;;;;;;;;;5065548;28;20205;-63
2023/08/08 04:16:41;;;;;;;2.20;1.42;;;;;;;;;;5065545;28;20197;-64
2023/08/08 04:19:07;;;;;;;2.00;1.38;;;;;;;;;;5065724;28;20234;-64
2023/08/08 04:21:33;;;;;;;2.08;1.58;;;;;;;;;;5065743;28;20203;-64
2023/08/08 04:23:59;;;;;;;2.08;1.80;;;;;;;;;;5065485;28;20212;-64
2023/08/08 04:26:26;;;;;;;2.00;1.58;;;;;;;;;;5065588;28;20211;-64
2023/08/08 04:28:52;;;;;;;1.50;1.50;;;;;;;;;;5065532;28;20402;-64
2023/08/08 04:31:18;;;;;;;1.70;1.70;;;;;;;;;;5065361;28;20303;-64
2023/08/08 04:33:46;;;;;;;1.60;1.50;;;;;;;;;;5065510;28;20501;-64
2023/08/08 04:36:12;;;;;;;4.20;1.73;;;;;;;;;;5065380;28;20500;-64
2023/08/08 04:38:38;;;;;;;1.98;1.88;;;;;;;;;;5065460;28;20435;-64
2023/08/08 04:41:04;;;;;;;1.77;1.60;;;;;;;;;;5065340;28;20201;-64
2023/08/08 04:43:31;;;;;;;2.75;1.48;;;;;;;;;;5065303;28;20205;-64
2023/08/08 04:45:57;;;;;;;1.50;1.50;;;;;;;;;;5065386;28;20213;-64
2023/08/08 04:48:23;;;;;;;3.22;1.50;;;;;;;;;;5065138;28;20209;-64
2023/08/08 04:50:51;;;;;;;1.20;1.20;;;;;;;;;;5064941;28;20225;-64
2023/08/08 04:53:17;;;;;;;1.95;1.30;;;;;;;;;;5065050;28;20197;-64
2023/08/08 04:55:43;;;;;;;1.48;1.48;;;;;;;;;;5064832;28;20523;-64
2023/08/08 04:58:10;;;;;;;2.50;1.40;;;;;;;;;;5064823;28;20197;-64
2023/08/08 05:00:36;;;;;;;1.48;1.35;;;;;;;;;;5064888;28;20197;-64
2023/08/08 05:03:02;;;;;;;2.05;1.40;;;;;;;;;;5064829;28;20201;-64
2023/08/08 05:05:28;;;;;;;2.83;1.40;;;;;;;;;;5064796;28;20405;-64
2023/08/08 05:07:56;;;;;;;1.65;1.55;;;;;;;;;;5064803;28;20420;-64
2023/08/08 05:10:22;;;;;;;1.38;1.25;;;;;;;;;;5064135;28;20221;-64
2023/08/08 05:12:49;;;;;;;1.48;1.40;;;;;;;;;;5064435;28;20205;-64
2023/08/08 05:15:15;;;;;;;2.00;1.20;;;;;;;;;;5064682;28;20224;-64
2023/08/08 05:17:41;;;;;;;1.27;1.13;;;;;;;;;;5064699;28;20204;-64
2023/08/08 05:20:09;;;;;;;3.22;1.40;;;;;;;;;;5064557;28;20205;-64
2023/08/08 05:22:35;;;;;;;1.40;1.30;;;;;;;;;;5064369;28;20260;-64
2023/08/08 05:25:03;;;;;;;2.95;1.40;;;;;;;;;;5064409;28;20205;-64
2023/08/08 05:27:29;;;;;;;2.53;1.20;;;;;;;;;;5064257;28;20225;-64
2023/08/08 05:29:55;;;;;;;1.50;1.40;;;;;;;;;;5064547;28;20205;-64
2023/08/08 05:32:21;;;;;;;1.30;1.30;;;;;;;;;;5064353;28;20221;-64
2023/08/08 05:34:49;;;;;;;4.45;1.20;;;;;;;;;;5064295;28;20209;-64
2023/08/08 05:37:15;;;;;;;1.60;1.50;;;;;;;;;;5064290;28;20212;-64
2023/08/08 05:39:41;;;;;;;1.60;1.50;;;;;;;;;;5064105;28;20204;-64
2023/08/08 05:42:09;;;;;;;1.35;1.08;;;;;;;;;;5064078;28;20205;-64
2023/08/08 05:44:35;;;;;;;1.25;1.20;;;;;;;;;;5064014;28;20201;-64
2023/08/08 05:47:01;;;;;;;1.20;1.20;;;;;;;;;;5064033;28;20392;-64
2023/08/08 05:49:27;;;;;;;1.48;1.38;;;;;;;;;;5064108;28;20197;-64
2023/08/08 05:51:54;;;;;;;4.15;1.27;;;;;;;;;;5063705;28;20243;-64
2023/08/08 05:54:20;;;;;;;1.75;1.17;;;;;;;;;;5063679;28;20197;-64
2023/08/08 05:56:46;;;;;;;0.80;0.80;;;;;;;;;;5063913;28;20212;-64
2023/08/08 05:59:14;;;;;;;1.48;1.38;;;;;;;;;;5064017;28;20198;-64
2023/08/08 06:01:40;;;;;;;1.25;1.20;;;;;;;;;;5059368;28;20210;-54
2023/08/08 06:04:06;;;;;;;3.03;1.15;;;;;;;;;;5057952;28;20224;-53
2023/08/08 06:06:32;;;;;;;2.10;1.13;;;;;;;;;;5055635;28;20216;-53
2023/08/08 06:08:59;;;;;;;1.00;1.00;;;;;;;;;;5058138;28;20213;-52
2023/08/08 06:11:25;;;;;;;1.20;1.00;;;;;;;;;;5058533;28;20217;-53
2023/08/08 06:13:51;;;;;;;1.27;1.05;;;;;;;;;;5058153;28;20213;-54
2023/08/08 06:16:20;;;;;;;1.08;1.08;;;;;;;;;;5042373;28;20216;-54
2023/08/08 06:18:46;;;;;;;2.75;1.10;;;;;;;;;;5045094;28;20214;-53
2023/08/08 06:21:12;;;;;;;1.40;1.13;;;;;;;;;;5055521;28;20407;-54
2023/08/08 06:23:39;;;;;;;2.17;1.25;;;;;;;;;;5054296;28;20216;-54
2023/08/08 06:26:05;;;;;;;1.30;1.20;;;;;;;;;;5054799;28;20236;-52
2023/08/08 06:28:31;;;;;;;2.03;1.40;;;;;;;;;;5055180;28;20240;-53
2023/08/08 06:30:58;;;;;;;1.95;1.50;;;;;;;;;;5047009;28;20235;-52
2023/08/08 06:33:26;;;;;;;2.33;1.13;;;;;;;;;;5055044;28;20208;-53
2023/08/08 06:35:52;;;;;;;2.28;1.35;;;;;;;;;;5054826;28;20212;-53
2023/08/08 06:38:18;;;;;;;1.88;1.23;;;;;;;;;;5050509;28;20205;-54
2023/08/08 06:40:44;;;;;;;3.35;1.27;;;;;;;;;;5046385;28;20221;-54
2023/08/08 06:43:11;;;;;;;1.73;1.45;;;;;;;;;;5049708;28;20209;-54
2023/08/08 06:45:37;;;;;;;1.75;1.25;;;;;;;;;;5054740;28;20384;-54
2023/08/08 06:48:03;;;;;;;1.23;1.13;;;;;;;;;;5054697;28;20216;-54
2023/08/08 06:50:31;;;;;;;1.20;1.15;;;;;;;;;;5054872;28;20571;-54
2023/08/08 06:52:57;;;;;;;1.30;1.20;;;;;;;;;;5043384;28;20221;-52
2023/08/08 06:55:24;;;;;;;2.90;1.20;;;;;;;;;;5054817;28;20216;-54
2023/08/08 06:57:50;;;;;;;1.20;1.13;;;;;;;;;;5054979;28;20288;-55
2023/08/08 07:00:16;;;;;;;1.95;1.00;;;;;;;;;;5047949;28;20205;-53
2023/08/08 07:02:42;;;;;;;4.72;1.23;;;;;;;;;;5046940;28;20513;-54
2023/08/08 07:05:09;;;;;;;2.72;1.30;;;;;;;;;;5054411;28;20276;-53
2023/08/08 07:07:38;;;;;;;0.90;0.90;;;;;;;;;;5054736;28;20209;-53
2023/08/08 07:10:06;;;;;;;2.40;1.15;;;;;;;;;;5048384;28;20212;-52
2023/08/08 07:12:32;;;;;;;3.60;1.02;;;;;;;;;;5050018;28;20230;-52
2023/08/08 07:14:58;;;;;;;1.00;1.00;;;;;;;;;;5051274;28;20220;-53
2023/08/08 07:17:25;;;;;;;4.38;1.05;;;;;;;;;;5042376;28;20205;-53
2023/08/08 07:19:51;;;;;;;2.40;1.00;;;;;;;;;;5048103;28;20217;-53
2023/08/08 07:22:17;;;;;;;1.73;1.00;;;;;;;;;;5054149;28;20205;-52
2023/08/08 07:24:45;;;;;;;2.05;1.30;;;;;;;;;;5053860;28;20459;-53
2023/08/08 07:27:11;;;;;;;1.90;1.05;;;;;;;;;;5051000;28;20229;-53
2023/08/08 07:29:37;;;;;;;0.95;0.95;;;;;;;;;;5054384;28;20213;-54
2023/08/08 07:32:04;;;;;;;3.13;1.23;;;;;;;;;;5043107;28;20301;-54
2023/08/08 07:34:30;;;;;;;2.83;0.98;;;;;;;;;;5053971;28;20209;-53
2023/08/08 07:36:56;;;;;;;2.45;0.90;;;;;;;;;;5046278;28;20205;-53
2023/08/08 07:39:23;;;;;;;1.63;1.13;;;;;;;;;;5050950;28;20209;-54
2023/08/08 07:41:50;;;;;;;1.08;1.08;;;;;;;;;;5049326;28;20208;-53
2023/08/08 07:44:17;;;;;;;3.47;1.20;;;;;;;;;;5041221;28;20213;-55
2023/08/08 07:46:43;;;;;;;1.08;1.08;;;;;;;;;;5046881;28;20503;-53
2023/08/08 07:49:09;;;;;;;1.35;1.15;;;;;;;;;;5054131;28;20213;-53
2023/08/08 07:51:36;;;;;;;2.00;0.85;;;;;;;;;;5055867;28;20229;-52
2023/08/08 07:54:02;;;;;;;2.53;0.95;;;;;;;;;;5048009;28;20217;-53
2023/08/08 07:56:28;;;;;;;2.05;1.13;;;;;;;;;;5055669;28;20283;-52
2023/08/08 07:58:56;;;;;;;0.90;0.90;;;;;;;;;;5055901;28;20220;-52
2023/08/08 08:01:23;;;;;;;1.50;0.90;;;;;;;;;;5040924;28;20212;-54
2023/08/08 08:03:49;;;;;;;3.50;1.05;;;;;;;;;;5043951;28;20409;-53
2023/08/08 08:06:15;;;;;;;2.40;1.33;;;;;;;;;;5054940;28;20209;-54
2023/08/08 08:08:41;;;;;;;3.90;1.17;;;;;;;;;;5055097;28;20220;-54
2023/08/08 08:11:08;;;;;;;1.45;1.27;;;;;;;;;;5055298;28;20571;-52
2023/08/08 08:13:34;;;;;;;5.60;1.00;;;;;;;;;;5048881;28;20209;-53
2023/08/08 08:16:02;;;;;;;2.13;1.30;;;;;;;;;;5051860;28;20217;-55
2023/08/08 08:18:28;;;;;;;2.53;1.08;;;;;;;;;;5047236;28;20209;-54
2023/08/08 08:20:55;;;;;;;1.33;1.10;;;;;;;;;;5049808;28;20590;-53
2023/08/08 08:23:21;;;;;;;1.17;1.08;;;;;;;;;;5055329;28;20212;-53
2023/08/08 08:25:48;;;;;;;1.00;1.00;;;;;;;;;;5048903;28;20218;-53
2023/08/08 08:28:16;;;;;;;2.20;0.80;;;;;;;;;;5054348;28;20520;-53
2023/08/08 08:30:43;;;;;;;1.67;1.10;;;;;;;;;;5053181;28;20348;-52
2023/08/08 08:33:10;;;;;;;1.38;0.90;;;;;;;;;;5046479;28;20279;-54
2023/08/08 08:35:37;;;;;;;1.08;1.00;;;;;;;;;;5049396;28;20414;-55
2023/08/08 08:38:04;;;;;;;3.05;1.00;;;;;;;;;;5038280;28;20416;-53
2023/08/08 08:40:30;;;;;;;1.33;1.23;;;;;;;;;;5044055;28;20217;-55
2023/08/08 08:42:57;;;;;;;3.28;1.15;;;;;;;;;;5049546;28;20525;-55
2023/08/08 08:45:23;;;;;;;1.50;1.00;;;;;;;;;;5054826;28;20239;-54
2023/08/08 08:47:50;;;;;;;1.50;1.30;;;;;;;;;;5059075;28;20223;-54
2023/08/08 08:50:18;;;;;;;1.98;1.10;;;;;;;;;;5051483;28;20213;-53
2023/08/08 08:52:45;;;;;;;5.38;1.00;;;;;;;;;;5042878;28;20224;-53
2023/08/08 08:55:11;;;;;;;1.58;1.10;;;;;;;;;;5045329;28;20644;-55
2023/08/08 08:57:38;;;;;;;1.90;0.98;;;;;;;;;;5052647;28;20216;-53
2023/08/08 09:00:05;;;;;;;1.27;0.80;;;;;;;;;;5056661;28;20217;-53
2023/08/08 09:02:32;;;;;;;2.20;0.80;;;;;;;;;;5056063;28;20462;-55
2023/08/08 09:04:58;;;;;;;1.73;0.90;;;;;;;;;;5053466;28;20217;-55
2023/08/08 09:07:27;;;;;;;1.98;1.00;;;;;;;;;;5052321;28;20209;-54
2023/08/08 09:09:53;;;;;;;1.42;0.93;;;;;;;;;;5055780;28;20239;-54
2023/08/08 09:12:19;;;;;;;1.95;0.93;;;;;;;;;;5053224;28;20225;-53
2023/08/08 09:14:46;;;;;;;1.92;1.08;;;;;;;;;;5058396;28;20221;-53
2023/08/08 09:17:13;;;;;;;2.00;0.98;;;;;;;;;;5054649;28;20213;-55
2023/08/08 09:19:39;;;;;;;1.23;1.13;;;;;;;;;;5058994;28;20460;-55
2023/08/08 09:22:06;;;;;;;1.10;1.00;;;;;;;;;;5050593;28;20260;-54
2023/08/08 09:24:33;;;;;;;3.45;1.05;;;;;;;;;;5050692;28;20209;-55
2023/08/08 09:27:00;;;;;;;1.23;1.10;;;;;;;;;;5045821;28;20300;-55
2023/08/08 09:29:27;;;;;;;1.00;1.00;;;;;;;;;;5049950;28;20539;-53
2023/08/08 09:31:53;;;;;;;1.10;1.00;;;;;;;;;;5044747;28;20229;-55
2023/08/08 09:34:19;;;;;;;0.85;0.80;;;;;;;;;;5051545;28;20214;-53
2023/08/08 09:36:45;;;;;;;1.70;0.90;;;;;;;;;;5043531;28;20217;-55
2023/08/08 09:39:11;;;;;;;2.53;1.00;;;;;;;;;;5042429;28;20217;-55
2023/08/08 09:41:39;;;;;;;0.98;0.98;;;;;;;;;;5047038;28;20216;-54
2023/08/08 09:44:06;;;;;;;2.15;0.93;;;;;;;;;;5049497;28;20216;-53
2023/08/08 09:46:32;;;;;;;2.40;0.90;;;;;;;;;;5057439;28;20517;-53
2023/08/08 09:48:59;;;;;;;1.85;0.80;;;;;;;;;;5057621;28;20240;-52
2023/08/08 09:51:26;;;;;;;1.17;0.93;;;;;;;;;;5043919;28;20256;-52
2023/08/08 09:53:53;;;;;;;1.17;0.90;;;;;;;;;;5047359;28;20221;-54
2023/08/08 09:56:20;;;;;;;3.90;1.27;;;;;;;;;;5052135;28;20221;-52
2023/08/08 09:58:47;;;;;;;0.70;0.70;;;;;;;;;;5057631;28;20221;-54
2023/08/08 10:01:14;;;;;;;2.40;1.45;;;;;;;;;;5041965;28;20217;-53
2023/08/08 10:03:42;;;;;;;1.33;0.80;;;;;;;;;;5045994;28;20209;-53
2023/08/08 10:06:09;;;;;;;0.82;0.82;;;;;;;;;;5042504;28;20472;-54
2023/08/08 10:08:36;;;;;;;1.23;0.95;;;;;;;;;;5046025;28;20216;-55
2023/08/08 10:11:03;;;;;;;1.52;0.85;;;;;;;;;;5050731;28;20217;-56
2023/08/08 10:13:29;;;;;;;2.00;0.80;;;;;;;;;;5055407;28;20598;-54
2023/08/08 10:15:57;;;;;;;0.65;0.65;;;;;;;;;;5051502;28;20264;-54
2023/08/08 10:18:24;;;;;;;2.67;0.80;;;;;;;;;;5054182;28;20209;-54
2023/08/08 10:20:51;;;;;;;1.48;0.85;;;;;;;;;;5046074;28;20214;-55
2023/08/08 10:23:17;;;;;;;2.17;0.88;;;;;;;;;;5040773;28;20210;-52
2023/08/08 10:25:44;;;;;;;1.27;0.80;;;;;;;;;;5054542;28;20462;-53
2023/08/08 10:28:13;;;;;;;1.23;0.73;;;;;;;;;;5056085;28;20228;-53
2023/08/08 10:30:43;;;;;;;0.98;0.98;;;;;;;;;;5046321;28;20408;-55
2023/08/08 10:33:17;;;;;;;1.65;0.90;;;;;;;;;;5044556;28;20229;-55
2023/08/08 10:35:51;;;;;;;0.88;0.80;;;;;;;;;;5057185;28;20279;-55
2023/08/08 10:38:17;;;;;;;0.90;0.90;;;;;;;;;;5055040;28;20213;-53
2023/08/08 10:40:44;;;;;;;1.33;0.80;;;;;;;;;;5045199;28;20213;-55
2023/08/08 10:43:12;;;;;;;6.85;1.05;;;;;;;;;;5052645;28;20334;-53
2023/08/08 10:45:42;;;;;;;2.67;0.90;;;;;;;;;;5048726;28;20209;-53
2023/08/08 10:48:09;;;;;;;3.22;1.00;;;;;;;;;;5054294;28;20263;-53
2023/08/08 10:50:40;;;;;;;1.90;0.80;;;;;;;;;;5056658;28;20226;-53
2023/08/08 10:53:09;;;;;;;0.98;0.75;;;;;;;;;;5051751;28;20236;-53
2023/08/08 10:55:37;;;;;;;0.93;0.88;;;;;;;;;;5050010;28;20235;-53
2023/08/08 10:58:05;;;;;;;1.73;0.88;;;;;;;;;;5046049;28;20213;-55
2023/08/08 11:00:32;;;;;;;1.02;0.90;;;;;;;;;;5036941;28;20557;-54
2023/08/08 11:02:59;;;;;;;1.15;0.90;;;;;;;;;;5050869;28;20296;-53
2023/08/08 11:05:26;;;;;;;1.35;1.00;;;;;;;;;;5047336;28;20213;-55
2023/08/08 11:07:54;;;;;;;2.03;0.80;;;;;;;;;;5043098;28;20220;-54
2023/08/08 11:10:22;;;;;;;1.55;1.00;;;;;;;;;;5043113;28;20217;-53
2023/08/08 11:12:55;;;;;;;1.27;0.98;;;;;;;;;;5038974;28;20428;-54
2023/08/08 11:15:22;;;;;;;0.95;0.90;;;;;;;;;;5046071;28;20220;-53
2023/08/08 11:17:49;;;;;;;2.40;0.90;;;;;;;;;;5052451;28;20550;-53
2023/08/08 11:20:15;;;;;;;0.85;0.80;;;;;;;;;;5050076;28;20219;-54
2023/08/08 11:22:42;;;;;;;1.67;0.80;;;;;;;;;;5046127;28;20211;-56
2023/08/08 11:25:10;;;;;;;1.05;0.93;;;;;;;;;;5038054;28;20259;-56
2023/08/08 11:27:37;;;;;;;1.13;0.90;;;;;;;;;;5046517;28;20480;-55
2023/08/08 11:30:03;;;;;;;0.82;0.82;;;;;;;;;;5038199;28;20583;-54
2023/08/08 11:32:29;;;;;;;1.50;1.02;;;;;;;;;;5044728;28;20224;-54
2023/08/08 11:34:56;;;;;;;1.02;0.95;;;;;;;;;;5040994;28;20205;-53
2023/08/08 11:37:23;;;;;;;1.85;0.80;;;;;;;;;;5043825;28;20213;-54
2023/08/08 11:39:49;;;;;;;1.00;0.70;;;;;;;;;;5042388;28;20240;-53
2023/08/08 11:42:18;;;;;;;3.20;0.70;;;;;;;;;;5048053;28;20572;-53
2023/08/08 11:44:44;;;;;;;3.03;1.17;;;;;;;;;;5052622;28;20248;-54
2023/08/08 11:47:10;;;;;;;1.08;1.00;;;;;;;;;;5040229;28;20231;-54
2023/08/08 11:49:40;;;;;;;1.08;1.00;;;;;;;;;;5045089;28;20539;-53
2023/08/08 11:52:07;;;;;;;1.33;0.90;;;;;;;;;;5048758;28;20217;-53
2023/08/08 11:54:33;;;;;;;2.05;0.85;;;;;;;;;;5043867;28;20287;-53
2023/08/08 11:57:01;;;;;;;1.58;0.85;;;;;;;;;;5049896;28;20212;-55
2023/08/08 11:59:29;;;;;;;1.67;0.88;;;;;;;;;;5043628;28;20408;-53
2023/08/08 12:01:56;;;;;;;1.17;0.85;;;;;;;;;;5052744;28;20224;-55
2023/08/08 12:04:22;;;;;;;2.25;0.90;;;;;;;;;;5049205;28;20208;-54
2023/08/08 12:06:49;;;;;;;1.25;0.80;;;;;;;;;;5052331;28;20213;-55
2023/08/08 12:09:15;;;;;;;1.75;0.80;;;;;;;;;;5048443;28;20209;-53
2023/08/08 12:11:41;;;;;;;0.80;0.80;;;;;;;;;;5050356;28;20213;-53
2023/08/08 12:14:08;;;;;;;1.30;0.68;;;;;;;;;;5049041;28;20228;-52
2023/08/08 12:16:38;;;;;;;2.38;0.98;;;;;;;;;;5047433;28;20215;-54
2023/08/08 12:19:07;;;;;;;1.00;1.00;;;;;;;;;;5056013;28;20524;-53
2023/08/08 12:21:34;;;;;;;1.13;1.00;;;;;;;;;;5051817;28;20215;-53
2023/08/08 12:24:00;;;;;;;0.70;0.70;;;;;;;;;;5053911;28;20225;-52
2023/08/08 12:26:27;;;;;;;1.08;0.80;;;;;;;;;;5050517;28;20424;-53
2023/08/08 12:28:53;;;;;;;1.02;0.80;;;;;;;;;;5059373;28;20236;-54
2023/08/08 12:31:20;;;;;;;1.67;0.88;;;;;;;;;;5058483;28;20389;-53
2023/08/08 12:33:48;;;;;;;1.60;0.93;;;;;;;;;;5046324;28;20568;-53
2023/08/08 12:36:15;;;;;;;1.40;0.80;;;;;;;;;;5042198;28;20240;-53
2023/08/08 12:38:41;;;;;;;0.70;0.70;;;;;;;;;;5044552;28;20214;-52
2023/08/08 12:41:07;;;;;;;0.65;0.65;;;;;;;;;;5047999;28;20212;-54
2023/08/08 12:43:34;;;;;;;0.73;0.73;;;;;;;;;;5048001;28;20204;-54
2023/08/08 12:46:00;;;;;;;0.80;0.80;;;;;;;;;;5044442;28;20259;-55
2023/08/08 12:48:27;;;;;;;0.80;0.80;;;;;;;;;;5042715;28;20453;-55
2023/08/08 12:50:54;;;;;;;0.70;0.70;;;;;;;;;;5053308;28;20213;-53
2023/08/08 12:53:21;;;;;;;0.90;0.90;;;;;;;;;;5059075;28;20233;-52
2023/08/08 12:55:47;;;;;;;2.45;1.08;;;;;;;;;;5046895;28;20243;-52
2023/08/08 12:58:13;;;;;;;1.23;0.90;;;;;;;;;;5050299;28;20213;-53
2023/08/08 13:00:39;;;;;;;0.88;0.88;;;;;;;;;;5047881;28;20239;-53
2023/08/08 13:03:06;;;;;;;4.88;0.70;;;;;;;;;;5049998;28;20251;-54
2023/08/08 13:05:32;;;;;;;1.63;0.95;;;;;;;;;;5048013;28;20236;-53
2023/08/08 13:08:00;;;;;;;0.70;0.70;;;;;;;;;;5053923;28;20209;-53
2023/08/08 13:10:26;;;;;;;1.17;0.90;;;;;;;;;;5051621;28;20228;-53
2023/08/08 13:12:52;;;;;;;1.58;1.13;;;;;;;;;;5055214;28;20235;-54
2023/08/08 13:15:19;;;;;;;0.93;0.93;;;;;;;;;;5048498;28;20236;-54
2023/08/08 13:17:45;;;;;;;3.10;1.08;;;;;;;;;;5046682;28;20743;-53
2023/08/08 13:20:12;;;;;;;1.10;0.82;;;;;;;;;;5039518;28;20544;-52
2023/08/08 13:22:38;;;;;;;1.23;0.82;;;;;;;;;;5043448;28;20409;-53
2023/08/08 13:25:06;;;;;;;1.05;1.00;;;;;;;;;;5042789;28;20209;-54
2023/08/08 13:27:33;;;;;;;1.10;1.00;;;;;;;;;;5049002;28;20251;-53
2023/08/08 13:30:00;;;;;;;1.33;1.08;;;;;;;;;;5050269;28;20213;-53
2023/08/08 13:32:26;;;;;;;0.90;0.90;;;;;;;;;;5050990;28;20271;-55
2023/08/08 13:34:52;;;;;;;2.95;1.00;;;;;;;;;;5046656;28;20232;-54
2023/08/08 13:37:19;;;;;;;0.70;0.70;;;;;;;;;;5041340;28;20226;-54
2023/08/08 13:39:45;;;;;;;2.03;1.23;;;;;;;;;;5053354;28;20533;-54
2023/08/08 13:42:13;;;;;;;5.20;0.90;;;;;;;;;;5053456;28;20209;-53
2023/08/08 13:44:39;;;;;;;1.52;1.02;;;;;;;;;;5048457;28;20235;-54
2023/08/08 13:47:05;;;;;;;1.35;0.90;;;;;;;;;;5055192;28;20475;-54
2023/08/08 13:49:32;;;;;;;1.13;1.08;;;;;;;;;;5057656;28;20533;-53
2023/08/08 13:51:58;;;;;;;3.53;1.10;;;;;;;;;;5058005;28;20213;-55
2023/08/08 13:54:24;;;;;;;2.40;0.90;;;;;;;;;;5049104;28;20235;-54
2023/08/08 13:56:50;;;;;;;0.93;0.80;;;;;;;;;;5054806;28;20409;-53
2023/08/08 13:59:18;;;;;;;1.67;0.80;;;;;;;;;;5054614;28;20221;-51
2023/08/08 14:01:44;;;;;;;1.75;0.90;;;;;;;;;;5049152;28;20212;-54
2023/08/08 14:04:10;;;;;;;3.50;1.00;;;;;;;;;;5053512;28;20531;-55
2023/08/08 14:06:37;;;;;;;4.25;0.73;;;;;;;;;;5057005;28;20517;-54
2023/08/08 14:09:04;;;;;;;1.65;0.80;;;;;;;;;;5055522;28;20216;-53
2023/08/08 14:11:30;;;;;;;3.65;0.88;;;;;;;;;;5055892;28;20524;-54
2023/08/08 14:13:56;;;;;;;1.02;1.02;;;;;;;;;;5057351;28;20252;-53
2023/08/08 14:16:24;;;;;;;2.60;0.80;;;;;;;;;;5057245;28;20401;-55
2023/08/08 14:18:50;;;;;;;1.30;1.10;;;;;;;;;;5057479;28;20212;-53
2023/08/08 14:21:16;;;;;;;1.63;1.00;;;;;;;;;;5044450;28;20221;-53
2023/08/08 14:23:44;;;;;;;1.10;0.90;;;;;;;;;;5052345;28;20211;-54
2023/08/08 14:26:10;;;;;;;1.33;0.95;;;;;;;;;;5047454;28;20433;-53
2023/08/08 14:28:36;;;;;;;0.90;0.90;;;;;;;;;;5056802;28;20468;-53
2023/08/08 14:31:05;;;;;;;1.77;0.95;;;;;;;;;;5057378;28;20235;-53
2023/08/08 14:33:33;;;;;;;0.95;0.95;;;;;;;;;;5050302;28;20291;-53
2023/08/08 14:35:59;;;;;;;2.83;1.15;;;;;;;;;;5057178;28;20223;-53
2023/08/08 14:38:26;;;;;;;0.80;0.80;;;;;;;;;;5050909;28;20216;-56
2023/08/08 14:40:52;;;;;;;1.25;1.00;;;;;;;;;;5063130;28;20200;-55